sensor_id;sensor_type;location;lat;lon;timestamp;temperature;humidity
5286;DHT22;2665;53.112;7.358;2024-03-02T00:00:19;6.40;1.90
5286;DHT22;2665;53.112;7.358;2024-03-02T00:02:50;6.40;1.00
5286;DHT22;2665;53.112;7.358;2024-03-02T00:05:20;6.50;1.00
5286;DHT22;2665;53.112;7.358;2024-03-02T00:07:54;6.50;99.90
5286;DHT22;2665;53.112;7.358;2024-03-02T00:10:26;6.50;99.90
5286;DHT22;2665;53.112;7.358;2024-03-02T00:12:56;6.60;1.00
5286;DHT22;2665;53.112;7.358;2024-03-02T00:18:11;6.60;1.00
5286;DHT22;2665;53.112;7.358;2024-03-02T00:20:38;6.60;99.90
5286;DHT22;2665;53.112;7.358;2024-03-02T00:23:05;6.60;99.90
5286;DHT22;2665;53.112;7.358;2024-03-02T00:25:54;6.60;99.90
5286;DHT22;2665;53.112;7.358;2024-03-02T00:33:44;6.60;50.50
5286;DHT22;2665;53.112;7.358;2024-03-02T00:36:14;6.60;17.60
5286;DHT22;2665;53.112;7.358;2024-03-02T00:38:47;6.60;91.00
5286;DHT22;2665;53.112;7.358;2024-03-02T00:43:58;6.50;99.90
5286;DHT22;2665;53.112;7.358;2024-03-02T00:46:30;6.50;99.90
5286;DHT22;2665;53.112;7.358;2024-03-02T00:48:59;6.50;99.90
5286;DHT22;2665;53.112;7.358;2024-03-02T00:51:27;6.50;99.90
5286;DHT22;2665;53.112;7.358;2024-03-02T00:53:53;6.50;99.90
5286;DHT22;2665;53.112;7.358;2024-03-02T00:56:23;6.50;99.90
5286;DHT22;2665;53.112;7.358;2024-03-02T00:58:49;6.50;99.90
5286;DHT22;2665;53.112;7.358;2024-03-02T01:01:15;6.50;99.90
5286;DHT22;2665;53.112;7.358;2024-03-02T01:03:42;6.50;99.90
5286;DHT22;2665;53.112;7.358;2024-03-02T01:06:08;6.50;99.90
5286;DHT22;2665;53.112;7.358;2024-03-02T01:08:35;6.50;99.90
5286;DHT22;2665;53.112;7.358;2024-03-02T01:11:01;6.50;99.90
5286;DHT22;2665;53.112;7.358;2024-03-02T01:13:27;6.50;99.90
5286;DHT22;2665;53.112;7.358;2024-03-02T01:15:53;6.40;99.90
5286;DHT22;2665;53.112;7.358;2024-03-02T01:18:19;6.40;99.90
5286;DHT22;2665;53.112;7.358;2024-03-02T01:20:44;6.40;99.90
5286;DHT22;2665;53.112;7.358;2024-03-02T01:23:11;6.40;99.90
5286;DHT22;2665;53.112;7.358;2024-03-02T01:25:36;6.40;1.00
5286;DHT22;2665;53.112;7.358;2024-03-02T01:28:02;6.40;1.00
5286;DHT22;2665;53.112;7.358;2024-03-02T01:30:28;6.40;1.00
5286;DHT22;2665;53.112;7.358;2024-03-02T01:32:54;6.40;1.00
5286;DHT22;2665;53.112;7.358;2024-03-02T01:35:19;6.40;1.00
5286;DHT22;2665;53.112;7.358;2024-03-02T01:37:45;6.40;1.00
5286;DHT22;2665;53.112;7.358;2024-03-02T01:40:11;6.50;1.00
5286;DHT22;2665;53.112;7.358;2024-03-02T01:42:38;6.60;1.00
5286;DHT22;2665;53.112;7.358;2024-03-02T01:45:07;6.60;99.90
5286;DHT22;2665;53.112;7.358;2024-03-02T01:47:34;6.60;99.90
5286;DHT22;2665;53.112;7.358;2024-03-02T01:50:00;6.70;94.10
5286;DHT22;2665;53.112;7.358;2024-03-02T01:52:27;6.70;1.00
5286;DHT22;2665;53.112;7.358;2024-03-02T01:54:52;6.70;1.00
5286;DHT22;2665;53.112;7.358;2024-03-02T01:57:19;6.70;1.00
5286;DHT22;2665;53.112;7.358;2024-03-02T01:59:45;6.70;1.00
5286;DHT22;2665;53.112;7.358;2024-03-02T02:02:13;6.70;1.00
5286;DHT22;2665;53.112;7.358;2024-03-02T02:04:39;6.80;1.00
5286;DHT22;2665;53.112;7.358;2024-03-02T02:07:04;6.80;1.00
5286;DHT22;2665;53.112;7.358;2024-03-02T02:09:30;6.80;99.90
5286;DHT22;2665;53.112;7.358;2024-03-02T02:11:56;6.90;99.90
5286;DHT22;2665;53.112;7.358;2024-03-02T02:14:21;6.90;99.90
5286;DHT22;2665;53.112;7.358;2024-03-02T02:16:47;7.00;99.90
5286;DHT22;2665;53.112;7.358;2024-03-02T02:19:13;7.00;22.50
5286;DHT22;2665;53.112;7.358;2024-03-02T02:21:42;7.10;1.00
5286;DHT22;2665;53.112;7.358;2024-03-02T02:24:08;7.00;1.00
5286;DHT22;2665;53.112;7.358;2024-03-02T02:26:33;7.10;1.00
5286;DHT22;2665;53.112;7.358;2024-03-02T02:28:59;7.00;1.00
5286;DHT22;2665;53.112;7.358;2024-03-02T02:31:25;7.10;1.00
5286;DHT22;2665;53.112;7.358;2024-03-02T02:33:50;7.10;1.00
5286;DHT22;2665;53.112;7.358;2024-03-02T02:36:16;7.10;1.00
5286;DHT22;2665;53.112;7.358;2024-03-02T02:38:45;7.20;1.00
5286;DHT22;2665;53.112;7.358;2024-03-02T02:41:12;7.20;99.90
5286;DHT22;2665;53.112;7.358;2024-03-02T02:43:38;7.30;99.90
5286;DHT22;2665;53.112;7.358;2024-03-02T02:46:05;7.40;99.90
5286;DHT22;2665;53.112;7.358;2024-03-02T02:48:31;7.40;1.00
5286;DHT22;2665;53.112;7.358;2024-03-02T02:50:56;7.50;1.00
5286;DHT22;2665;53.112;7.358;2024-03-02T02:53:22;7.50;99.90
5286;DHT22;2665;53.112;7.358;2024-03-02T02:55:48;7.60;99.90
5286;DHT22;2665;53.112;7.358;2024-03-02T02:58:13;7.60;99.90
5286;DHT22;2665;53.112;7.358;2024-03-02T03:00:40;7.60;99.90
5286;DHT22;2665;53.112;7.358;2024-03-02T03:03:05;7.60;71.70
5286;DHT22;2665;53.112;7.358;2024-03-02T03:05:31;7.60;1.00
5286;DHT22;2665;53.112;7.358;2024-03-02T03:07:57;7.60;1.00
5286;DHT22;2665;53.112;7.358;2024-03-02T03:10:23;7.50;1.00
5286;DHT22;2665;53.112;7.358;2024-03-02T03:12:51;7.60;1.00
5286;DHT22;2665;53.112;7.358;2024-03-02T03:15:17;7.50;1.00
5286;DHT22;2665;53.112;7.358;2024-03-02T03:17:42;7.50;1.00
5286;DHT22;2665;53.112;7.358;2024-03-02T03:20:09;7.50;1.00
5286;DHT22;2665;53.112;7.358;2024-03-02T03:22:40;7.40;1.00
5286;DHT22;2665;53.112;7.358;2024-03-02T03:25:06;7.50;1.00
5286;DHT22;2665;53.112;7.358;2024-03-02T03:27:35;7.40;1.00
5286;DHT22;2665;53.112;7.358;2024-03-02T03:30:01;7.30;1.00
5286;DHT22;2665;53.112;7.358;2024-03-02T03:32:27;7.30;16.30
5286;DHT22;2665;53.112;7.358;2024-03-02T03:34:53;7.20;99.90
5286;DHT22;2665;53.112;7.358;2024-03-02T03:37:19;7.10;99.90
5286;DHT22;2665;53.112;7.358;2024-03-02T03:39:45;7.00;99.90
5286;DHT22;2665;53.112;7.358;2024-03-02T03:42:10;7.00;99.90
5286;DHT22;2665;53.112;7.358;2024-03-02T03:44:36;6.90;1.00
5286;DHT22;2665;53.112;7.358;2024-03-02T03:47:02;6.90;1.00
5286;DHT22;2665;53.112;7.358;2024-03-02T03:49:28;6.80;1.00
5286;DHT22;2665;53.112;7.358;2024-03-02T03:51:53;6.80;99.90
5286;DHT22;2665;53.112;7.358;2024-03-02T03:54:19;6.70;1.00
5286;DHT22;2665;53.112;7.358;2024-03-02T03:56:45;6.70;1.00
5286;DHT22;2665;53.112;7.358;2024-03-02T03:59:10;6.70;1.00
5286;DHT22;2665;53.112;7.358;2024-03-02T04:01:36;6.70;1.00
5286;DHT22;2665;53.112;7.358;2024-03-02T04:04:02;6.60;1.00
5286;DHT22;2665;53.112;7.358;2024-03-02T04:06:29;6.60;1.00
5286;DHT22;2665;53.112;7.358;2024-03-02T04:08:55;6.50;48.80
5286;DHT22;2665;53.112;7.358;2024-03-02T04:11:20;6.50;99.90
5286;DHT22;2665;53.112;7.358;2024-03-02T04:13:46;6.40;99.90
5286;DHT22;2665;53.112;7.358;2024-03-02T04:16:12;6.40;1.00
5286;DHT22;2665;53.112;7.358;2024-03-02T04:18:37;6.40;1.00
5286;DHT22;2665;53.112;7.358;2024-03-02T04:21:05;6.50;99.90
5286;DHT22;2665;53.112;7.358;2024-03-02T04:23:30;6.50;99.90
5286;DHT22;2665;53.112;7.358;2024-03-02T04:25:56;6.60;23.70
5286;DHT22;2665;53.112;7.358;2024-03-02T04:28:21;6.60;1.00
5286;DHT22;2665;53.112;7.358;2024-03-02T04:30:47;6.60;1.00
5286;DHT22;2665;53.112;7.358;2024-03-02T04:33:13;6.60;1.00
5286;DHT22;2665;53.112;7.358;2024-03-02T04:35:38;6.70;1.00
5286;DHT22;2665;53.112;7.358;2024-03-02T04:38:04;6.60;99.90
5286;DHT22;2665;53.112;7.358;2024-03-02T04:40:30;6.60;99.90
5286;DHT22;2665;53.112;7.358;2024-03-02T04:42:55;6.60;99.90
5286;DHT22;2665;53.112;7.358;2024-03-02T04:45:21;6.50;99.90
5286;DHT22;2665;53.112;7.358;2024-03-02T04:47:47;6.40;1.00
5286;DHT22;2665;53.112;7.358;2024-03-02T04:50:12;6.40;1.00
5286;DHT22;2665;53.112;7.358;2024-03-02T04:52:38;6.40;1.00
5286;DHT22;2665;53.112;7.358;2024-03-02T04:55:04;6.30;33.90
5286;DHT22;2665;53.112;7.358;2024-03-02T04:58:02;6.30;1.00
5286;DHT22;2665;53.112;7.358;2024-03-02T05:00:28;6.20;2.60
5286;DHT22;2665;53.112;7.358;2024-03-02T05:02:53;6.20;99.90
5286;DHT22;2665;53.112;7.358;2024-03-02T05:05:19;6.10;99.90
5286;DHT22;2665;53.112;7.358;2024-03-02T05:07:45;6.10;99.90
5286;DHT22;2665;53.112;7.358;2024-03-02T05:10:11;6.10;1.00
5286;DHT22;2665;53.112;7.358;2024-03-02T05:12:39;6.10;1.00
5286;DHT22;2665;53.112;7.358;2024-03-02T05:15:08;6.10;1.00
5286;DHT22;2665;53.112;7.358;2024-03-02T05:17:36;6.10;1.00
5286;DHT22;2665;53.112;7.358;2024-03-02T05:20:02;6.00;1.00
5286;DHT22;2665;53.112;7.358;2024-03-02T05:22:29;6.00;1.00
5286;DHT22;2665;53.112;7.358;2024-03-02T05:24:54;5.90;1.00
5286;DHT22;2665;53.112;7.358;2024-03-02T05:27:20;5.90;1.00
5286;DHT22;2665;53.112;7.358;2024-03-02T05:29:46;5.90;99.90
5286;DHT22;2665;53.112;7.358;2024-03-02T05:32:12;6.00;99.90
5286;DHT22;2665;53.112;7.358;2024-03-02T05:34:38;6.00;99.90
5286;DHT22;2665;53.112;7.358;2024-03-02T05:37:03;5.90;99.90
5286;DHT22;2665;53.112;7.358;2024-03-02T05:39:29;5.90;99.90
5286;DHT22;2665;53.112;7.358;2024-03-02T05:41:54;5.90;46.10
5286;DHT22;2665;53.112;7.358;2024-03-02T05:44:20;5.80;99.90
5286;DHT22;2665;53.112;7.358;2024-03-02T05:46:46;5.80;10.50
5286;DHT22;2665;53.112;7.358;2024-03-02T05:49:11;5.80;99.90
5286;DHT22;2665;53.112;7.358;2024-03-02T05:51:37;5.70;99.90
5286;DHT22;2665;53.112;7.358;2024-03-02T05:54:03;5.60;99.90
5286;DHT22;2665;53.112;7.358;2024-03-02T05:56:28;5.60;99.90
5286;DHT22;2665;53.112;7.358;2024-03-02T05:58:54;5.50;1.00
5286;DHT22;2665;53.112;7.358;2024-03-02T06:01:48;5.50;2.10
5286;DHT22;2665;53.112;7.358;2024-03-02T06:04:16;5.40;99.90
5286;DHT22;2665;53.112;7.358;2024-03-02T06:06:42;5.40;99.90
5286;DHT22;2665;53.112;7.358;2024-03-02T06:09:08;5.30;99.90
5286;DHT22;2665;53.112;7.358;2024-03-02T06:11:35;5.30;1.00
5286;DHT22;2665;53.112;7.358;2024-03-02T06:14:02;5.30;1.00
5286;DHT22;2665;53.112;7.358;2024-03-02T06:16:27;5.20;99.90
5286;DHT22;2665;53.112;7.358;2024-03-02T06:18:53;5.20;99.90
5286;DHT22;2665;53.112;7.358;2024-03-02T06:21:20;5.20;99.90
5286;DHT22;2665;53.112;7.358;2024-03-02T06:23:45;5.20;99.90
5286;DHT22;2665;53.112;7.358;2024-03-02T06:26:11;5.20;99.90
5286;DHT22;2665;53.112;7.358;2024-03-02T06:28:37;5.20;99.90
5286;DHT22;2665;53.112;7.358;2024-03-02T06:31:04;5.20;99.90
5286;DHT22;2665;53.112;7.358;2024-03-02T06:33:29;5.30;1.00
5286;DHT22;2665;53.112;7.358;2024-03-02T06:35:55;5.30;99.90
5286;DHT22;2665;53.112;7.358;2024-03-02T06:38:21;5.30;99.90
5286;DHT22;2665;53.112;7.358;2024-03-02T06:40:46;5.30;99.90
5286;DHT22;2665;53.112;7.358;2024-03-02T06:43:12;5.30;99.90
5286;DHT22;2665;53.112;7.358;2024-03-02T06:45:38;5.30;99.90
5286;DHT22;2665;53.112;7.358;2024-03-02T06:48:03;5.40;99.90
5286;DHT22;2665;53.112;7.358;2024-03-02T06:50:29;5.50;1.00
5286;DHT22;2665;53.112;7.358;2024-03-02T06:52:55;5.50;1.00
5286;DHT22;2665;53.112;7.358;2024-03-02T06:55:23;5.50;1.00
5286;DHT22;2665;53.112;7.358;2024-03-02T06:57:52;5.50;1.00
5286;DHT22;2665;53.112;7.358;2024-03-02T07:00:18;5.50;1.00
5286;DHT22;2665;53.112;7.358;2024-03-02T07:02:45;5.50;1.00
5286;DHT22;2665;53.112;7.358;2024-03-02T07:05:11;5.60;1.00
5286;DHT22;2665;53.112;7.358;2024-03-02T07:07:37;5.60;1.00
5286;DHT22;2665;53.112;7.358;2024-03-02T07:10:04;5.70;1.00
5286;DHT22;2665;53.112;7.358;2024-03-02T07:12:30;5.80;1.00
5286;DHT22;2665;53.112;7.358;2024-03-02T07:14:57;6.00;99.90
5286;DHT22;2665;53.112;7.358;2024-03-02T07:17:29;6.10;99.90
5286;DHT22;2665;53.112;7.358;2024-03-02T07:19:54;6.20;23.40
5286;DHT22;2665;53.112;7.358;2024-03-02T07:22:20;6.30;1.00
5286;DHT22;2665;53.112;7.358;2024-03-02T07:24:46;6.40;1.00
5286;DHT22;2665;53.112;7.358;2024-03-02T07:27:12;6.40;99.90
5286;DHT22;2665;53.112;7.358;2024-03-02T07:29:39;6.50;26.90
5286;DHT22;2665;53.112;7.358;2024-03-02T07:32:06;6.60;1.00
5286;DHT22;2665;53.112;7.358;2024-03-02T07:34:32;6.60;1.00
5286;DHT22;2665;53.112;7.358;2024-03-02T07:36:58;6.60;1.00
5286;DHT22;2665;53.112;7.358;2024-03-02T07:39:24;6.60;99.90
5286;DHT22;2665;53.112;7.358;2024-03-02T07:41:50;6.60;99.90
5286;DHT22;2665;53.112;7.358;2024-03-02T07:44:16;6.60;99.90
5286;DHT22;2665;53.112;7.358;2024-03-02T07:46:45;6.60;99.90
5286;DHT22;2665;53.112;7.358;2024-03-02T07:49:20;6.60;99.90
5286;DHT22;2665;53.112;7.358;2024-03-02T07:51:46;6.70;99.90
5286;DHT22;2665;53.112;7.358;2024-03-02T07:54:12;6.70;99.90
5286;DHT22;2665;53.112;7.358;2024-03-02T07:56:37;6.80;99.90
5286;DHT22;2665;53.112;7.358;2024-03-02T07:59:04;6.80;99.90
5286;DHT22;2665;53.112;7.358;2024-03-02T08:01:33;6.90;99.90
5286;DHT22;2665;53.112;7.358;2024-03-02T08:04:00;6.90;99.90
5286;DHT22;2665;53.112;7.358;2024-03-02T08:06:29;7.00;28.90
5286;DHT22;2665;53.112;7.358;2024-03-02T08:08:59;7.00;1.00
5286;DHT22;2665;53.112;7.358;2024-03-02T08:11:25;7.10;1.00
5286;DHT22;2665;53.112;7.358;2024-03-02T08:13:52;7.20;1.00
5286;DHT22;2665;53.112;7.358;2024-03-02T08:16:20;7.30;1.00
5286;DHT22;2665;53.112;7.358;2024-03-02T08:18:49;7.30;1.00
5286;DHT22;2665;53.112;7.358;2024-03-02T08:21:15;7.40;1.00
5286;DHT22;2665;53.112;7.358;2024-03-02T08:23:42;7.40;99.90
5286;DHT22;2665;53.112;7.358;2024-03-02T08:26:11;7.50;99.90
5286;DHT22;2665;53.112;7.358;2024-03-02T08:28:37;7.50;99.90
5286;DHT22;2665;53.112;7.358;2024-03-02T08:31:04;7.60;99.90
5286;DHT22;2665;53.112;7.358;2024-03-02T08:33:30;7.60;91.30
5286;DHT22;2665;53.112;7.358;2024-03-02T08:35:56;7.60;1.00
5286;DHT22;2665;53.112;7.358;2024-03-02T08:38:22;7.70;1.00
5286;DHT22;2665;53.112;7.358;2024-03-02T08:40:49;7.70;99.90
5286;DHT22;2665;53.112;7.358;2024-03-02T08:43:15;7.80;99.90
5286;DHT22;2665;53.112;7.358;2024-03-02T08:45:41;7.80;99.90
5286;DHT22;2665;53.112;7.358;2024-03-02T08:48:10;7.90;99.90
5286;DHT22;2665;53.112;7.358;2024-03-02T08:50:36;7.90;88.80
5286;DHT22;2665;53.112;7.358;2024-03-02T08:53:05;8.00;99.90
5286;DHT22;2665;53.112;7.358;2024-03-02T08:55:31;8.10;99.90
5286;DHT22;2665;53.112;7.358;2024-03-02T08:57:56;8.20;1.00
5286;DHT22;2665;53.112;7.358;2024-03-02T09:00:23;8.20;1.00
5286;DHT22;2665;53.112;7.358;2024-03-02T09:02:49;8.30;99.90
5286;DHT22;2665;53.112;7.358;2024-03-02T09:05:15;8.40;99.90
5286;DHT22;2665;53.112;7.358;2024-03-02T09:07:40;8.50;99.90
5286;DHT22;2665;53.112;7.358;2024-03-02T09:10:07;8.60;6.90
5286;DHT22;2665;53.112;7.358;2024-03-02T09:12:33;8.70;1.00
5286;DHT22;2665;53.112;7.358;2024-03-02T09:15:01;8.80;1.00
5286;DHT22;2665;53.112;7.358;2024-03-02T09:17:27;8.90;99.90
5286;DHT22;2665;53.112;7.358;2024-03-02T09:19:52;9.00;99.90
5286;DHT22;2665;53.112;7.358;2024-03-02T09:22:21;9.20;99.90
5286;DHT22;2665;53.112;7.358;2024-03-02T09:24:47;9.30;14.80
5286;DHT22;2665;53.112;7.358;2024-03-02T09:27:13;9.50;1.00
5286;DHT22;2665;53.112;7.358;2024-03-02T09:29:38;9.80;1.00
5286;DHT22;2665;53.112;7.358;2024-03-02T09:32:05;10.10;1.00
5286;DHT22;2665;53.112;7.358;2024-03-02T09:34:31;10.50;99.90
5286;DHT22;2665;53.112;7.358;2024-03-02T09:36:57;10.80;72.40
5286;DHT22;2665;53.112;7.358;2024-03-02T09:39:23;11.00;1.00
5286;DHT22;2665;53.112;7.358;2024-03-02T09:41:51;11.20;1.00
5286;DHT22;2665;53.112;7.358;2024-03-02T09:44:17;11.40;1.00
5286;DHT22;2665;53.112;7.358;2024-03-02T09:46:42;11.80;99.90
5286;DHT22;2665;53.112;7.358;2024-03-02T09:49:10;12.30;99.90
5286;DHT22;2665;53.112;7.358;2024-03-02T09:51:37;12.60;99.90
5286;DHT22;2665;53.112;7.358;2024-03-02T09:54:02;12.80;99.90
5286;DHT22;2665;53.112;7.358;2024-03-02T09:56:28;12.70;99.90
5286;DHT22;2665;53.112;7.358;2024-03-02T09:58:54;12.40;99.90
5286;DHT22;2665;53.112;7.358;2024-03-02T10:01:19;12.20;99.90
5286;DHT22;2665;53.112;7.358;2024-03-02T10:03:45;12.00;92.30
5286;DHT22;2665;53.112;7.358;2024-03-02T10:06:25;11.80;95.90
5286;DHT22;2665;53.112;7.358;2024-03-02T10:08:53;11.70;99.90
5286;DHT22;2665;53.112;7.358;2024-03-02T10:11:30;11.70;98.30
5286;DHT22;2665;53.112;7.358;2024-03-02T10:14:09;11.70;99.90
5286;DHT22;2665;53.112;7.358;2024-03-02T10:16:36;11.80;99.90
5286;DHT22;2665;53.112;7.358;2024-03-02T10:19:24;11.80;99.90
5286;DHT22;2665;53.112;7.358;2024-03-02T10:21:51;11.80;96.10
5286;DHT22;2665;53.112;7.358;2024-03-02T10:24:17;11.90;87.60
5286;DHT22;2665;53.112;7.358;2024-03-02T10:26:43;12.00;96.30
5286;DHT22;2665;53.112;7.358;2024-03-02T10:29:10;12.10;90.00
5286;DHT22;2665;53.112;7.358;2024-03-02T10:31:41;12.10;91.00
5286;DHT22;2665;53.112;7.358;2024-03-02T10:34:08;12.20;98.90
5286;DHT22;2665;53.112;7.358;2024-03-02T10:36:34;12.30;90.70
5286;DHT22;2665;53.112;7.358;2024-03-02T10:39:06;12.30;57.20
5286;DHT22;2665;53.112;7.358;2024-03-02T10:41:36;12.30;53.90
5286;DHT22;2665;53.112;7.358;2024-03-02T10:44:07;12.40;53.80
5286;DHT22;2665;53.112;7.358;2024-03-02T10:46:35;12.40;54.00
5286;DHT22;2665;53.112;7.358;2024-03-02T10:49:02;12.50;53.80
5286;DHT22;2665;53.112;7.358;2024-03-02T10:51:31;12.60;53.70
5286;DHT22;2665;53.112;7.358;2024-03-02T10:53:59;12.80;54.10
5286;DHT22;2665;53.112;7.358;2024-03-02T10:56:34;13.00;43.30
5286;DHT22;2665;53.112;7.358;2024-03-02T11:01:55;13.40;1.00
5286;DHT22;2665;53.112;7.358;2024-03-02T11:04:21;13.50;1.00
5286;DHT22;2665;53.112;7.358;2024-03-02T11:06:50;13.60;1.00
5286;DHT22;2665;53.112;7.358;2024-03-02T11:09:22;13.60;1.00
5286;DHT22;2665;53.112;7.358;2024-03-02T11:21:57;13.90;1.00
5286;DHT22;2665;53.112;7.358;2024-03-02T11:26:49;15.80;1.00
5286;DHT22;2665;53.112;7.358;2024-03-02T11:32:24;17.60;1.00
5286;DHT22;2665;53.112;7.358;2024-03-02T11:34:50;18.20;1.00
5286;DHT22;2665;53.112;7.358;2024-03-02T11:37:18;18.40;1.00
5286;DHT22;2665;53.112;7.358;2024-03-02T11:39:49;18.50;1.00
5286;DHT22;2665;53.112;7.358;2024-03-02T11:42:16;18.70;1.00
5286;DHT22;2665;53.112;7.358;2024-03-02T11:44:46;18.80;1.00
5286;DHT22;2665;53.112;7.358;2024-03-02T11:47:15;19.20;1.00
5286;DHT22;2665;53.112;7.358;2024-03-02T11:49:49;19.70;1.00
5286;DHT22;2665;53.112;7.358;2024-03-02T11:52:16;19.90;1.00
5286;DHT22;2665;53.112;7.358;2024-03-02T11:54:46;19.80;1.00
5286;DHT22;2665;53.112;7.358;2024-03-02T11:57:18;19.60;1.00
5286;DHT22;2665;53.112;7.358;2024-03-02T11:59:45;19.40;1.00
5286;DHT22;2665;53.112;7.358;2024-03-02T12:02:21;19.10;1.00
5286;DHT22;2665;53.112;7.358;2024-03-02T12:04:48;19.30;1.00
5286;DHT22;2665;53.112;7.358;2024-03-02T12:07:22;19.60;1.00
5286;DHT22;2665;53.112;7.358;2024-03-02T12:09:48;19.40;1.00
5286;DHT22;2665;53.112;7.358;2024-03-02T12:12:15;19.10;1.00
5286;DHT22;2665;53.112;7.358;2024-03-02T12:14:53;19.00;1.00
5286;DHT22;2665;53.112;7.358;2024-03-02T12:17:22;19.00;1.00
5286;DHT22;2665;53.112;7.358;2024-03-02T12:19:48;19.00;1.00
5286;DHT22;2665;53.112;7.358;2024-03-02T12:22:14;18.90;1.00
5286;DHT22;2665;53.112;7.358;2024-03-02T12:24:44;18.80;1.00
5286;DHT22;2665;53.112;7.358;2024-03-02T12:27:12;18.90;1.00
5286;DHT22;2665;53.112;7.358;2024-03-02T12:29:38;18.80;1.00
5286;DHT22;2665;53.112;7.358;2024-03-02T12:32:05;18.90;1.00
5286;DHT22;2665;53.112;7.358;2024-03-02T12:34:31;18.90;1.00
5286;DHT22;2665;53.112;7.358;2024-03-02T12:36:57;18.70;1.00
5286;DHT22;2665;53.112;7.358;2024-03-02T12:39:23;19.00;1.00
5286;DHT22;2665;53.112;7.358;2024-03-02T12:41:51;19.00;1.00
5286;DHT22;2665;53.112;7.358;2024-03-02T12:44:19;19.00;1.00
5286;DHT22;2665;53.112;7.358;2024-03-02T12:46:46;19.10;1.00
5286;DHT22;2665;53.112;7.358;2024-03-02T12:49:13;19.30;1.00
5286;DHT22;2665;53.112;7.358;2024-03-02T12:51:42;19.50;1.00
5286;DHT22;2665;53.112;7.358;2024-03-02T12:54:11;19.50;1.00
5286;DHT22;2665;53.112;7.358;2024-03-02T12:56:41;19.30;1.00
5286;DHT22;2665;53.112;7.358;2024-03-02T12:59:21;19.50;1.00
5286;DHT22;2665;53.112;7.358;2024-03-02T13:01:55;19.30;1.00
5286;DHT22;2665;53.112;7.358;2024-03-02T13:04:25;18.80;1.00
5286;DHT22;2665;53.112;7.358;2024-03-02T13:06:52;18.70;1.00
5286;DHT22;2665;53.112;7.358;2024-03-02T13:09:18;18.90;1.00
5286;DHT22;2665;53.112;7.358;2024-03-02T13:11:44;19.00;1.00
5286;DHT22;2665;53.112;7.358;2024-03-02T13:14:13;19.10;1.00
5286;DHT22;2665;53.112;7.358;2024-03-02T13:16:40;19.40;1.00
5286;DHT22;2665;53.112;7.358;2024-03-02T13:19:09;19.50;1.00
5286;DHT22;2665;53.112;7.358;2024-03-02T13:21:35;19.30;1.00
5286;DHT22;2665;53.112;7.358;2024-03-02T13:24:01;19.40;1.00
5286;DHT22;2665;53.112;7.358;2024-03-02T13:26:27;19.60;1.00
5286;DHT22;2665;53.112;7.358;2024-03-02T13:28:53;20.00;1.00
5286;DHT22;2665;53.112;7.358;2024-03-02T13:31:18;20.30;1.00
5286;DHT22;2665;53.112;7.358;2024-03-02T13:33:44;20.20;1.00
5286;DHT22;2665;53.112;7.358;2024-03-02T13:36:10;20.80;1.00
5286;DHT22;2665;53.112;7.358;2024-03-02T13:38:35;21.20;1.00
5286;DHT22;2665;53.112;7.358;2024-03-02T13:41:01;21.50;1.00
5286;DHT22;2665;53.112;7.358;2024-03-02T13:43:27;21.70;1.00
5286;DHT22;2665;53.112;7.358;2024-03-02T13:45:53;21.60;1.00
5286;DHT22;2665;53.112;7.358;2024-03-02T13:48:19;21.40;1.00
5286;DHT22;2665;53.112;7.358;2024-03-02T13:50:46;21.20;1.00
5286;DHT22;2665;53.112;7.358;2024-03-02T13:53:11;21.20;1.00
5286;DHT22;2665;53.112;7.358;2024-03-02T13:55:37;21.30;1.00
5286;DHT22;2665;53.112;7.358;2024-03-02T13:58:03;21.60;1.00
5286;DHT22;2665;53.112;7.358;2024-03-02T14:00:29;21.90;1.00
5286;DHT22;2665;53.112;7.358;2024-03-02T14:02:55;21.60;1.00
5286;DHT22;2665;53.112;7.358;2024-03-02T14:05:21;21.40;1.00
5286;DHT22;2665;53.112;7.358;2024-03-02T14:07:47;21.20;1.00
5286;DHT22;2665;53.112;7.358;2024-03-02T14:10:12;21.10;1.00
5286;DHT22;2665;53.112;7.358;2024-03-02T14:12:40;20.70;1.00
5286;DHT22;2665;53.112;7.358;2024-03-02T14:15:06;20.40;1.00
5286;DHT22;2665;53.112;7.358;2024-03-02T14:17:32;20.40;1.00
5286;DHT22;2665;53.112;7.358;2024-03-02T14:19:58;19.80;1.00
5286;DHT22;2665;53.112;7.358;2024-03-02T14:22:26;18.90;1.00
5286;DHT22;2665;53.112;7.358;2024-03-02T14:24:53;18.00;1.00
5286;DHT22;2665;53.112;7.358;2024-03-02T14:27:18;17.60;1.00
5286;DHT22;2665;53.112;7.358;2024-03-02T14:29:44;17.60;1.00
5286;DHT22;2665;53.112;7.358;2024-03-02T14:32:10;17.60;1.00
5286;DHT22;2665;53.112;7.358;2024-03-02T14:34:35;17.80;1.00
5286;DHT22;2665;53.112;7.358;2024-03-02T14:37:01;18.30;1.00
5286;DHT22;2665;53.112;7.358;2024-03-02T14:39:28;19.00;1.00
5286;DHT22;2665;53.112;7.358;2024-03-02T14:41:54;19.50;1.00
5286;DHT22;2665;53.112;7.358;2024-03-02T14:44:20;20.00;1.00
5286;DHT22;2665;53.112;7.358;2024-03-02T14:46:49;20.10;1.00
5286;DHT22;2665;53.112;7.358;2024-03-02T14:49:15;20.20;1.00
5286;DHT22;2665;53.112;7.358;2024-03-02T14:51:41;20.20;1.00
5286;DHT22;2665;53.112;7.358;2024-03-02T14:54:07;20.10;1.00
5286;DHT22;2665;53.112;7.358;2024-03-02T14:56:32;19.90;1.00
5286;DHT22;2665;53.112;7.358;2024-03-02T14:58:58;19.80;1.00
5286;DHT22;2665;53.112;7.358;2024-03-02T15:01:24;19.70;1.00
5286;DHT22;2665;53.112;7.358;2024-03-02T15:03:51;19.60;1.00
5286;DHT22;2665;53.112;7.358;2024-03-02T15:06:17;19.20;1.00
5286;DHT22;2665;53.112;7.358;2024-03-02T15:08:43;18.80;1.00
5286;DHT22;2665;53.112;7.358;2024-03-02T15:11:11;18.40;1.00
5286;DHT22;2665;53.112;7.358;2024-03-02T15:13:37;18.00;1.00
5286;DHT22;2665;53.112;7.358;2024-03-02T15:16:03;18.00;1.00
5286;DHT22;2665;53.112;7.358;2024-03-02T15:18:29;18.00;1.00
5286;DHT22;2665;53.112;7.358;2024-03-02T15:20:54;17.80;1.00
5286;DHT22;2665;53.112;7.358;2024-03-02T15:23:20;17.70;1.00
5286;DHT22;2665;53.112;7.358;2024-03-02T15:25:46;17.60;1.00
5286;DHT22;2665;53.112;7.358;2024-03-02T15:28:11;17.60;1.00
5286;DHT22;2665;53.112;7.358;2024-03-02T15:30:37;17.80;1.00
5286;DHT22;2665;53.112;7.358;2024-03-02T15:33:03;17.80;1.00
5286;DHT22;2665;53.112;7.358;2024-03-02T15:35:29;17.70;1.00
5286;DHT22;2665;53.112;7.358;2024-03-02T15:37:54;17.60;1.00
5286;DHT22;2665;53.112;7.358;2024-03-02T15:40:20;17.50;1.00
5286;DHT22;2665;53.112;7.358;2024-03-02T15:42:46;17.60;1.00
5286;DHT22;2665;53.112;7.358;2024-03-02T15:45:11;17.70;1.00
5286;DHT22;2665;53.112;7.358;2024-03-02T15:47:37;17.80;1.00
5286;DHT22;2665;53.112;7.358;2024-03-02T15:50:03;17.80;1.00
5286;DHT22;2665;53.112;7.358;2024-03-02T15:52:32;17.70;1.00
5286;DHT22;2665;53.112;7.358;2024-03-02T15:54:58;17.80;1.00
5286;DHT22;2665;53.112;7.358;2024-03-02T15:57:23;18.10;1.00
5286;DHT22;2665;53.112;7.358;2024-03-02T15:59:49;18.20;1.00
5286;DHT22;2665;53.112;7.358;2024-03-02T16:02:15;18.40;1.00
5286;DHT22;2665;53.112;7.358;2024-03-02T16:04:41;18.50;1.00
5286;DHT22;2665;53.112;7.358;2024-03-02T16:07:07;18.50;1.00
5286;DHT22;2665;53.112;7.358;2024-03-02T16:09:33;18.60;1.00
5286;DHT22;2665;53.112;7.358;2024-03-02T16:11:59;18.70;1.00
5286;DHT22;2665;53.112;7.358;2024-03-02T16:14:24;18.70;1.00
5286;DHT22;2665;53.112;7.358;2024-03-02T16:16:50;18.40;1.00
5286;DHT22;2665;53.112;7.358;2024-03-02T16:19:16;18.30;1.00
5286;DHT22;2665;53.112;7.358;2024-03-02T16:21:41;18.10;1.00
5286;DHT22;2665;53.112;7.358;2024-03-02T16:24:07;17.90;1.00
5286;DHT22;2665;53.112;7.358;2024-03-02T16:26:33;17.70;1.00
5286;DHT22;2665;53.112;7.358;2024-03-02T16:28:59;17.70;1.00
5286;DHT22;2665;53.112;7.358;2024-03-02T16:31:24;17.60;1.00
5286;DHT22;2665;53.112;7.358;2024-03-02T16:33:50;17.10;1.00
5286;DHT22;2665;53.112;7.358;2024-03-02T16:36:16;16.40;99.90
5286;DHT22;2665;53.112;7.358;2024-03-02T16:38:41;15.90;99.90
5286;DHT22;2665;53.112;7.358;2024-03-02T16:41:08;15.60;99.90
5286;DHT22;2665;53.112;7.358;2024-03-02T16:43:34;15.30;99.90
5286;DHT22;2665;53.112;7.358;2024-03-02T16:46:00;15.00;1.00